sensor_id;sensor_type;location;lat;lon;timestamp;P1;durP1;ratioP1;P2;durP2;ratioP2
11823;SDS011;5969;50.780;7.726;2023-09-08T00:00:02;5.90;;;5.30;;
11823;SDS011;5969;50.780;7.726;2023-09-08T00:02:29;6.85;;;5.22;;
11823;SDS011;5969;50.780;7.726;2023-09-08T00:04:56;8.15;;;5.07;;
11823;SDS011;5969;50.780;7.726;2023-09-08T00:07:23;5.30;;;4.85;;
11823;SDS011;5969;50.780;7.726;2023-09-08T00:09:50;6.22;;;4.93;;
11823;SDS011;5969;50.780;7.726;2023-09-08T00:12:18;7.68;;;5.68;;
11823;SDS011;5969;50.780;7.726;2023-09-08T00:14:45;5.13;;;4.65;;
11823;SDS011;5969;50.780;7.726;2023-09-08T00:17:11;6.22;;;5.60;;
11823;SDS011;5969;50.780;7.726;2023-09-08T00:19:38;5.70;;;5.20;;
11823;SDS011;5969;50.780;7.726;2023-09-08T00:22:06;7.80;;;5.80;;
11823;SDS011;5969;50.780;7.726;2023-09-08T00:24:33;6.47;;;5.80;;
11823;SDS011;5969;50.780;7.726;2023-09-08T00:26:59;6.80;;;5.13;;
11823;SDS011;5969;50.780;7.726;2023-09-08T00:29:28;6.78;;;5.57;;
11823;SDS011;5969;50.780;7.726;2023-09-08T00:31:54;7.18;;;5.75;;
11823;SDS011;5969;50.780;7.726;2023-09-08T00:34:21;5.80;;;5.30;;
11823;SDS011;5969;50.780;7.726;2023-09-08T00:36:48;6.57;;;5.40;;
11823;SDS011;5969;50.780;7.726;2023-09-08T00:39:16;5.57;;;5.07;;
11823;SDS011;5969;50.780;7.726;2023-09-08T00:41:42;6.28;;;5.47;;
11823;SDS011;5969;50.780;7.726;2023-09-08T00:44:10;6.18;;;5.57;;
11823;SDS011;5969;50.780;7.726;2023-09-08T00:46:38;6.10;;;5.50;;
11823;SDS011;5969;50.780;7.726;2023-09-08T00:49:05;7.28;;;4.88;;
11823;SDS011;5969;50.780;7.726;2023-09-08T00:51:34;5.82;;;5.00;;
11823;SDS011;5969;50.780;7.726;2023-09-08T00:54:03;5.88;;;5.38;;
11823;SDS011;5969;50.780;7.726;2023-09-08T00:56:30;5.88;;;5.28;;
11823;SDS011;5969;50.780;7.726;2023-09-08T00:58:57;6.00;;;5.40;;
11823;SDS011;5969;50.780;7.726;2023-09-08T01:01:24;5.82;;;5.20;;
11823;SDS011;5969;50.780;7.726;2023-09-08T01:03:53;6.03;;;5.45;;
11823;SDS011;5969;50.780;7.726;2023-09-08T01:06:21;6.72;;;5.32;;
11823;SDS011;5969;50.780;7.726;2023-09-08T01:08:48;6.25;;;5.65;;
11823;SDS011;5969;50.780;7.726;2023-09-08T01:11:15;5.90;;;5.30;;
11823;SDS011;5969;50.780;7.726;2023-09-08T01:13:44;7.05;;;5.32;;
11823;SDS011;5969;50.780;7.726;2023-09-08T01:16:10;7.88;;;5.70;;
11823;SDS011;5969;50.780;7.726;2023-09-08T01:18:37;5.60;;;5.10;;
11823;SDS011;5969;50.780;7.726;2023-09-08T01:21:18;6.07;;;5.47;;
11823;SDS011;5969;50.780;7.726;2023-09-08T01:24:26;7.70;;;5.45;;
11823;SDS011;5969;50.780;7.726;2023-09-08T01:27:14;6.30;;;5.45;;
11823;SDS011;5969;50.780;7.726;2023-09-08T01:29:44;6.50;;;5.47;;
11823;SDS011;5969;50.780;7.726;2023-09-08T01:32:13;6.05;;;5.45;;
11823;SDS011;5969;50.780;7.726;2023-09-08T01:34:40;5.88;;;5.38;;
11823;SDS011;5969;50.780;7.726;2023-09-08T01:37:07;7.82;;;4.78;;
11823;SDS011;5969;50.780;7.726;2023-09-08T01:39:34;5.25;;;4.72;;
11823;SDS011;5969;50.780;7.726;2023-09-08T01:42:01;6.40;;;4.18;;
11823;SDS011;5969;50.780;7.726;2023-09-08T01:44:30;6.43;;;4.13;;
11823;SDS011;5969;50.780;7.726;2023-09-08T01:46:56;5.03;;;4.53;;
11823;SDS011;5969;50.780;7.726;2023-09-08T01:49:23;6.60;;;5.03;;
11823;SDS011;5969;50.780;7.726;2023-09-08T01:51:50;4.38;;;3.97;;
11823;SDS011;5969;50.780;7.726;2023-09-08T01:54:18;6.70;;;4.75;;
11823;SDS011;5969;50.780;7.726;2023-09-08T01:56:44;6.28;;;5.68;;
11823;SDS011;5969;50.780;7.726;2023-09-08T01:59:11;6.75;;;6.15;;
11823;SDS011;5969;50.780;7.726;2023-09-08T02:01:39;7.07;;;6.25;;
11823;SDS011;5969;50.780;7.726;2023-09-08T02:04:06;7.97;;;6.63;;
11823;SDS011;5969;50.780;7.726;2023-09-08T02:06:33;8.15;;;6.47;;
11823;SDS011;5969;50.780;7.726;2023-09-08T02:08:59;7.65;;;6.60;;
11823;SDS011;5969;50.780;7.726;2023-09-08T02:11:26;6.53;;;5.93;;
11823;SDS011;5969;50.780;7.726;2023-09-08T02:13:53;7.43;;;6.38;;
11823;SDS011;5969;50.780;7.726;2023-09-08T02:16:20;6.85;;;6.15;;
11823;SDS011;5969;50.780;7.726;2023-09-08T02:18:50;8.63;;;6.10;;
11823;SDS011;5969;50.780;7.726;2023-09-08T02:21:16;7.65;;;5.78;;
11823;SDS011;5969;50.780;7.726;2023-09-08T02:23:43;9.40;;;7.40;;
11823;SDS011;5969;50.780;7.726;2023-09-08T02:26:10;7.53;;;6.68;;
11823;SDS011;5969;50.780;7.726;2023-09-08T02:28:37;6.47;;;5.88;;
11823;SDS011;5969;50.780;7.726;2023-09-08T02:31:03;7.47;;;6.40;;
11823;SDS011;5969;50.780;7.726;2023-09-08T02:33:30;6.65;;;5.72;;
11823;SDS011;5969;50.780;7.726;2023-09-08T02:36:02;7.38;;;5.93;;
11823;SDS011;5969;50.780;7.726;2023-09-08T02:38:30;7.95;;;5.72;;
11823;SDS011;5969;50.780;7.726;2023-09-08T02:40:56;7.82;;;5.57;;
11823;SDS011;5969;50.780;7.726;2023-09-08T02:43:23;7.05;;;5.10;;
11823;SDS011;5969;50.780;7.726;2023-09-08T02:45:50;6.28;;;5.68;;
11823;SDS011;5969;50.780;7.726;2023-09-08T02:48:17;5.03;;;4.60;;
11823;SDS011;5969;50.780;7.726;2023-09-08T02:50:44;5.22;;;4.72;;
11823;SDS011;5969;50.780;7.726;2023-09-08T02:53:12;4.60;;;4.20;;
11823;SDS011;5969;50.780;7.726;2023-09-08T02:55:39;6.10;;;4.55;;
11823;SDS011;5969;50.780;7.726;2023-09-08T02:58:05;6.97;;;4.70;;
11823;SDS011;5969;50.780;7.726;2023-09-08T03:00:32;5.57;;;5.07;;
11823;SDS011;5969;50.780;7.726;2023-09-08T03:02:59;5.90;;;5.40;;
11823;SDS011;5969;50.780;7.726;2023-09-08T03:05:26;10.60;;;6.13;;
11823;SDS011;5969;50.780;7.726;2023-09-08T03:07:54;5.80;;;5.22;;
11823;SDS011;5969;50.780;7.726;2023-09-08T03:10:22;7.03;;;6.00;;
11823;SDS011;5969;50.780;7.726;2023-09-08T03:12:49;6.05;;;5.45;;
11823;SDS011;5969;50.780;7.726;2023-09-08T03:15:15;6.55;;;5.63;;
11823;SDS011;5969;50.780;7.726;2023-09-08T03:17:42;8.32;;;5.90;;
11823;SDS011;5969;50.780;7.726;2023-09-08T03:20:09;6.63;;;5.82;;
11823;SDS011;5969;50.780;7.726;2023-09-08T03:22:38;7.82;;;6.25;;
11823;SDS011;5969;50.780;7.726;2023-09-08T03:25:05;6.88;;;6.18;;
11823;SDS011;5969;50.780;7.726;2023-09-08T03:27:33;7.18;;;6.47;;
11823;SDS011;5969;50.780;7.726;2023-09-08T03:30:00;7.38;;;6.68;;
11823;SDS011;5969;50.780;7.726;2023-09-08T03:32:28;7.05;;;5.68;;
11823;SDS011;5969;50.780;7.726;2023-09-08T03:34:54;6.13;;;5.60;;
11823;SDS011;5969;50.780;7.726;2023-09-08T03:37:21;5.82;;;5.20;;
11823;SDS011;5969;50.780;7.726;2023-09-08T03:39:48;5.68;;;5.10;;
11823;SDS011;5969;50.780;7.726;2023-09-08T03:42:15;5.80;;;5.00;;
11823;SDS011;5969;50.780;7.726;2023-09-08T03:44:43;6.85;;;4.97;;
11823;SDS011;5969;50.780;7.726;2023-09-08T03:47:10;6.88;;;6.20;;
11823;SDS011;5969;50.780;7.726;2023-09-08T03:49:37;9.95;;;7.15;;
11823;SDS011;5969;50.780;7.726;2023-09-08T03:52:04;7.10;;;6.50;;
11823;SDS011;5969;50.780;7.726;2023-09-08T03:54:31;8.52;;;6.50;;
11823;SDS011;5969;50.780;7.726;2023-09-08T03:56:58;7.00;;;6.30;;
11823;SDS011;5969;50.780;7.726;2023-09-08T03:59:25;8.07;;;6.68;;
11823;SDS011;5969;50.780;7.726;2023-09-08T04:01:53;7.65;;;6.28;;
11823;SDS011;5969;50.780;7.726;2023-09-08T04:04:20;7.60;;;6.40;;
11823;SDS011;5969;50.780;7.726;2023-09-08T04:06:47;8.93;;;6.22;;
11823;SDS011;5969;50.780;7.726;2023-09-08T04:09:14;5.22;;;4.80;;
11823;SDS011;5969;50.780;7.726;2023-09-08T04:11:41;7.85;;;4.97;;
11823;SDS011;5969;50.780;7.726;2023-09-08T04:14:08;5.28;;;4.65;;
11823;SDS011;5969;50.780;7.726;2023-09-08T04:16:34;6.60;;;4.95;;
11823;SDS011;5969;50.780;7.726;2023-09-08T04:19:02;5.25;;;4.72;;
11823;SDS011;5969;50.780;7.726;2023-09-08T04:21:29;6.85;;;5.43;;
11823;SDS011;5969;50.780;7.726;2023-09-08T04:23:56;5.40;;;4.55;;
11823;SDS011;5969;50.780;7.726;2023-09-08T04:26:23;5.32;;;4.82;;
11823;SDS011;5969;50.780;7.726;2023-09-08T04:28:50;5.25;;;4.82;;
11823;SDS011;5969;50.780;7.726;2023-09-08T04:31:16;5.30;;;4.80;;
11823;SDS011;5969;50.780;7.726;2023-09-08T04:33:44;6.75;;;5.53;;
11823;SDS011;5969;50.780;7.726;2023-09-08T04:36:12;8.27;;;6.07;;
11823;SDS011;5969;50.780;7.726;2023-09-08T04:38:40;7.13;;;6.32;;
11823;SDS011;5969;50.780;7.726;2023-09-08T04:41:07;8.38;;;6.13;;
11823;SDS011;5969;50.780;7.726;2023-09-08T04:43:33;6.30;;;5.70;;
11823;SDS011;5969;50.780;7.726;2023-09-08T04:46:00;6.75;;;5.40;;
11823;SDS011;5969;50.780;7.726;2023-09-08T04:48:28;7.90;;;5.20;;
11823;SDS011;5969;50.780;7.726;2023-09-08T04:50:54;10.60;;;5.10;;
11823;SDS011;5969;50.780;7.726;2023-09-08T04:53:23;5.88;;;5.28;;
11823;SDS011;5969;50.780;7.726;2023-09-08T04:55:50;6.93;;;5.28;;
11823;SDS011;5969;50.780;7.726;2023-09-08T04:58:17;5.63;;;4.75;;
11823;SDS011;5969;50.780;7.726;2023-09-08T05:00:44;5.47;;;4.65;;
11823;SDS011;5969;50.780;7.726;2023-09-08T05:03:10;4.90;;;4.40;;
11823;SDS011;5969;50.780;7.726;2023-09-08T05:05:37;5.80;;;5.30;;
11823;SDS011;5969;50.780;7.726;2023-09-08T05:08:04;5.30;;;4.70;;
11823;SDS011;5969;50.780;7.726;2023-09-08T05:10:33;5.40;;;4.90;;
11823;SDS011;5969;50.780;7.726;2023-09-08T05:12:59;6.47;;;4.95;;
11823;SDS011;5969;50.780;7.726;2023-09-08T05:15:26;5.55;;;5.05;;
11823;SDS011;5969;50.780;7.726;2023-09-08T05:17:53;5.28;;;4.78;;
11823;SDS011;5969;50.780;7.726;2023-09-08T05:20:20;5.68;;;5.07;;
11823;SDS011;5969;50.780;7.726;2023-09-08T05:22:46;5.90;;;5.30;;
11823;SDS011;5969;50.780;7.726;2023-09-08T05:25:13;7.30;;;6.15;;
11823;SDS011;5969;50.780;7.726;2023-09-08T05:27:41;6.35;;;5.03;;
11823;SDS011;5969;50.780;7.726;2023-09-08T05:30:11;5.70;;;4.82;;
11823;SDS011;5969;50.780;7.726;2023-09-08T05:32:38;5.55;;;4.50;;
11823;SDS011;5969;50.780;7.726;2023-09-08T05:35:05;5.63;;;4.57;;
11823;SDS011;5969;50.780;7.726;2023-09-08T05:37:32;5.88;;;5.20;;
11823;SDS011;5969;50.780;7.726;2023-09-08T05:39:59;5.30;;;4.80;;
11823;SDS011;5969;50.780;7.726;2023-09-08T05:42:25;4.95;;;4.45;;
11823;SDS011;5969;50.780;7.726;2023-09-08T05:44:54;4.85;;;4.35;;
11823;SDS011;5969;50.780;7.726;2023-09-08T05:47:20;6.10;;;4.70;;
11823;SDS011;5969;50.780;7.726;2023-09-08T05:49:47;4.80;;;4.40;;
11823;SDS011;5969;50.780;7.726;2023-09-08T05:52:14;7.65;;;4.80;;
11823;SDS011;5969;50.780;7.726;2023-09-08T05:54:41;5.13;;;4.68;;
11823;SDS011;5969;50.780;7.726;2023-09-08T05:57:08;5.55;;;4.95;;
11823;SDS011;5969;50.780;7.726;2023-09-08T05:59:34;6.07;;;5.47;;
11823;SDS011;5969;50.780;7.726;2023-09-08T06:02:03;6.80;;;6.00;;
11823;SDS011;5969;50.780;7.726;2023-09-08T06:04:29;6.88;;;6.18;;
11823;SDS011;5969;50.780;7.726;2023-09-08T06:06:57;6.70;;;5.93;;
11823;SDS011;5969;50.780;7.726;2023-09-08T06:09:24;7.88;;;5.70;;
11823;SDS011;5969;50.780;7.726;2023-09-08T06:11:51;6.40;;;5.80;;
11823;SDS011;5969;50.780;7.726;2023-09-08T06:14:18;7.45;;;6.70;;
11823;SDS011;5969;50.780;7.726;2023-09-08T06:16:45;8.07;;;6.68;;
11823;SDS011;5969;50.780;7.726;2023-09-08T06:19:13;6.57;;;5.97;;
11823;SDS011;5969;50.780;7.726;2023-09-08T06:21:39;8.45;;;6.10;;
11823;SDS011;5969;50.780;7.726;2023-09-08T06:24:07;6.75;;;6.13;;
11823;SDS011;5969;50.780;7.726;2023-09-08T06:26:34;6.57;;;5.63;;
11823;SDS011;5969;50.780;7.726;2023-09-08T06:29:00;6.78;;;5.93;;
11823;SDS011;5969;50.780;7.726;2023-09-08T06:31:27;7.40;;;6.70;;
11823;SDS011;5969;50.780;7.726;2023-09-08T06:33:54;7.15;;;5.85;;
11823;SDS011;5969;50.780;7.726;2023-09-08T06:36:22;6.47;;;5.88;;
11823;SDS011;5969;50.780;7.726;2023-09-08T06:38:49;5.90;;;5.20;;
11823;SDS011;5969;50.780;7.726;2023-09-08T06:41:16;7.32;;;5.85;;
11823;SDS011;5969;50.780;7.726;2023-09-08T06:43:43;6.80;;;5.95;;
11823;SDS011;5969;50.780;7.726;2023-09-08T06:46:11;8.40;;;5.93;;
11823;SDS011;5969;50.780;7.726;2023-09-08T06:48:37;7.32;;;5.35;;
11823;SDS011;5969;50.780;7.726;2023-09-08T06:51:04;7.80;;;5.97;;
11823;SDS011;5969;50.780;7.726;2023-09-08T06:53:32;6.72;;;6.13;;
11823;SDS011;5969;50.780;7.726;2023-09-08T06:55:59;6.70;;;5.78;;
11823;SDS011;5969;50.780;7.726;2023-09-08T06:58:26;6.10;;;5.53;;
11823;SDS011;5969;50.780;7.726;2023-09-08T07:00:53;6.55;;;5.95;;
11823;SDS011;5969;50.780;7.726;2023-09-08T07:03:20;6.22;;;5.63;;
11823;SDS011;5969;50.780;7.726;2023-09-08T07:05:47;6.55;;;5.93;;
11823;SDS011;5969;50.780;7.726;2023-09-08T07:08:15;6.60;;;5.47;;
11823;SDS011;5969;50.780;7.726;2023-09-08T07:10:44;6.25;;;5.60;;
11823;SDS011;5969;50.780;7.726;2023-09-08T07:13:11;6.45;;;5.20;;
11823;SDS011;5969;50.780;7.726;2023-09-08T07:15:38;6.78;;;5.75;;
11823;SDS011;5969;50.780;7.726;2023-09-08T07:18:05;6.93;;;5.78;;
11823;SDS011;5969;50.780;7.726;2023-09-08T07:20:32;7.85;;;5.68;;
11823;SDS011;5969;50.780;7.726;2023-09-08T07:22:59;6.10;;;5.50;;
11823;SDS011;5969;50.780;7.726;2023-09-08T07:25:26;6.70;;;5.97;;
11823;SDS011;5969;50.780;7.726;2023-09-08T07:27:54;6.20;;;5.63;;
11823;SDS011;5969;50.780;7.726;2023-09-08T07:30:21;6.60;;;5.85;;
11823;SDS011;5969;50.780;7.726;2023-09-08T07:32:48;6.13;;;5.47;;
11823;SDS011;5969;50.780;7.726;2023-09-08T07:35:15;8.02;;;5.78;;
11823;SDS011;5969;50.780;7.726;2023-09-08T07:37:42;6.35;;;5.22;;
11823;SDS011;5969;50.780;7.726;2023-09-08T07:40:09;5.97;;;4.90;;
11823;SDS011;5969;50.780;7.726;2023-09-08T07:42:36;5.80;;;5.30;;
11823;SDS011;5969;50.780;7.726;2023-09-08T07:45:05;6.93;;;5.55;;
11823;SDS011;5969;50.780;7.726;2023-09-08T07:47:34;5.60;;;5.10;;
11823;SDS011;5969;50.780;7.726;2023-09-08T07:50:15;6.00;;;4.88;;
11823;SDS011;5969;50.780;7.726;2023-09-08T07:52:44;6.95;;;4.93;;
11823;SDS011;5969;50.780;7.726;2023-09-08T07:55:10;7.93;;;5.22;;
11823;SDS011;5969;50.780;7.726;2023-09-08T07:57:37;5.90;;;4.65;;
11823;SDS011;5969;50.780;7.726;2023-09-08T08:00:06;5.47;;;4.97;;
11823;SDS011;5969;50.780;7.726;2023-09-08T08:02:35;5.20;;;4.80;;
11823;SDS011;5969;50.780;7.726;2023-09-08T08:05:03;6.18;;;5.10;;
11823;SDS011;5969;50.780;7.726;2023-09-08T08:07:31;5.70;;;5.20;;
11823;SDS011;5969;50.780;7.726;2023-09-08T08:09:57;6.30;;;4.70;;
11823;SDS011;5969;50.780;7.726;2023-09-08T08:12:24;5.50;;;5.00;;
11823;SDS011;5969;50.780;7.726;2023-09-08T08:14:51;8.55;;;4.95;;
11823;SDS011;5969;50.780;7.726;2023-09-08T08:17:20;6.28;;;5.30;;
11823;SDS011;5969;50.780;7.726;2023-09-08T08:19:47;4.80;;;4.40;;
11823;SDS011;5969;50.780;7.726;2023-09-08T08:22:13;4.80;;;4.40;;
11823;SDS011;5969;50.780;7.726;2023-09-08T08:24:40;7.13;;;4.80;;
11823;SDS011;5969;50.780;7.726;2023-09-08T08:27:07;6.50;;;5.22;;
11823;SDS011;5969;50.780;7.726;2023-09-08T08:29:33;6.65;;;5.00;;
11823;SDS011;5969;50.780;7.726;2023-09-08T08:32:00;5.93;;;5.43;;
11823;SDS011;5969;50.780;7.726;2023-09-08T08:34:29;6.72;;;4.65;;
11823;SDS011;5969;50.780;7.726;2023-09-08T08:36:55;5.35;;;4.85;;
11823;SDS011;5969;50.780;7.726;2023-09-08T08:39:22;5.30;;;4.80;;
11823;SDS011;5969;50.780;7.726;2023-09-08T08:41:49;6.50;;;4.65;;
11823;SDS011;5969;50.780;7.726;2023-09-08T08:44:17;6.32;;;5.22;;
11823;SDS011;5969;50.780;7.726;2023-09-08T08:46:44;5.00;;;4.60;;
11823;SDS011;5969;50.780;7.726;2023-09-08T08:49:14;5.25;;;4.47;;
11823;SDS011;5969;50.780;7.726;2023-09-08T08:51:43;5.28;;;4.78;;
11823;SDS011;5969;50.780;7.726;2023-09-08T08:54:10;8.02;;;4.90;;
11823;SDS011;5969;50.780;7.726;2023-09-08T08:56:38;4.97;;;4.57;;
11823;SDS011;5969;50.780;7.726;2023-09-08T08:59:06;5.35;;;4.95;;
11823;SDS011;5969;50.780;7.726;2023-09-08T09:01:33;5.85;;;5.25;;
11823;SDS011;5969;50.780;7.726;2023-09-08T09:04:00;5.00;;;4.50;;
11823;SDS011;5969;50.780;7.726;2023-09-08T09:06:27;4.97;;;4.50;;
11823;SDS011;5969;50.780;7.726;2023-09-08T09:08:55;5.22;;;4.72;;
11823;SDS011;5969;50.780;7.726;2023-09-08T09:11:23;5.43;;;4.93;;
11823;SDS011;5969;50.780;7.726;2023-09-08T09:13:50;4.90;;;4.50;;
11823;SDS011;5969;50.780;7.726;2023-09-08T09:16:17;4.72;;;4.32;;
11823;SDS011;5969;50.780;7.726;2023-09-08T09:18:53;8.35;;;4.35;;
11823;SDS011;5969;50.780;7.726;2023-09-08T09:21:21;4.97;;;4.13;;
11823;SDS011;5969;50.780;7.726;2023-09-08T09:23:49;4.28;;;3.72;;
11823;SDS011;5969;50.780;7.726;2023-09-08T09:26:24;3.95;;;3.60;;
11823;SDS011;5969;50.780;7.726;2023-09-08T09:28:51;4.32;;;3.92;;
11823;SDS011;5969;50.780;7.726;2023-09-08T09:31:22;4.85;;;3.88;;
11823;SDS011;5969;50.780;7.726;2023-09-08T09:33:59;5.78;;;3.92;;
11823;SDS011;5969;50.780;7.726;2023-09-08T09:36:29;4.35;;;3.78;;
11823;SDS011;5969;50.780;7.726;2023-09-08T09:38:57;4.22;;;3.53;;
11823;SDS011;5969;50.780;7.726;2023-09-08T09:41:26;4.30;;;3.90;;
11823;SDS011;5969;50.780;7.726;2023-09-08T09:43:54;5.68;;;3.92;;
11823;SDS011;5969;50.780;7.726;2023-09-08T09:46:21;3.85;;;3.55;;
11823;SDS011;5969;50.780;7.726;2023-09-08T09:48:50;4.13;;;3.72;;
11823;SDS011;5969;50.780;7.726;2023-09-08T09:51:18;3.85;;;3.35;;
11823;SDS011;5969;50.780;7.726;2023-09-08T09:53:46;5.05;;;3.25;;
11823;SDS011;5969;50.780;7.726;2023-09-08T09:56:13;3.80;;;3.40;;
11823;SDS011;5969;50.780;7.726;2023-09-08T09:58:42;4.50;;;3.67;;
11823;SDS011;5969;50.780;7.726;2023-09-08T10:01:10;5.00;;;3.15;;
11823;SDS011;5969;50.780;7.726;2023-09-08T10:03:37;6.03;;;3.55;;
11823;SDS011;5969;50.780;7.726;2023-09-08T10:06:05;6.30;;;3.80;;
11823;SDS011;5969;50.780;7.726;2023-09-08T10:08:33;6.35;;;3.30;;
11823;SDS011;5969;50.780;7.726;2023-09-08T10:11:01;4.50;;;3.20;;
11823;SDS011;5969;50.780;7.726;2023-09-08T10:13:31;7.40;;;3.67;;
11823;SDS011;5969;50.780;7.726;2023-09-08T10:16:06;4.28;;;3.20;;
11823;SDS011;5969;50.780;7.726;2023-09-08T10:18:34;3.53;;;3.13;;
11823;SDS011;5969;50.780;7.726;2023-09-08T10:21:02;5.53;;;3.20;;
11823;SDS011;5969;50.780;7.726;2023-09-08T10:23:33;4.57;;;3.10;;
11823;SDS011;5969;50.780;7.726;2023-09-08T10:26:03;4.55;;;3.20;;
11823;SDS011;5969;50.780;7.726;2023-09-08T10:28:34;6.20;;;3.38;;
11823;SDS011;5969;50.780;7.726;2023-09-08T10:31:02;5.72;;;3.30;;
11823;SDS011;5969;50.780;7.726;2023-09-08T10:33:31;3.70;;;3.40;;
11823;SDS011;5969;50.780;7.726;2023-09-08T10:35:59;3.72;;;3.30;;
11823;SDS011;5969;50.780;7.726;2023-09-08T10:38:28;4.82;;;3.13;;
11823;SDS011;5969;50.780;7.726;2023-09-08T10:43:57;4.28;;;3.03;;
11823;SDS011;5969;50.780;7.726;2023-09-08T10:46:28;4.85;;;3.10;;
11823;SDS011;5969;50.780;7.726;2023-09-08T10:49:01;3.42;;;3.13;;
11823;SDS011;5969;50.780;7.726;2023-09-08T10:51:29;3.63;;;3.30;;
11823;SDS011;5969;50.780;7.726;2023-09-08T10:53:56;3.65;;;3.20;;
11823;SDS011;5969;50.780;7.726;2023-09-08T10:56:29;3.10;;;2.90;;
11823;SDS011;5969;50.780;7.726;2023-09-08T10:59:13;3.95;;;3.28;;
11823;SDS011;5969;50.780;7.726;2023-09-08T11:01:41;3.28;;;2.97;;
11823;SDS011;5969;50.780;7.726;2023-09-08T11:04:09;3.90;;;3.00;;
11823;SDS011;5969;50.780;7.726;2023-09-08T11:06:38;4.63;;;3.22;;
11823;SDS011;5969;50.780;7.726;2023-09-08T11:09:06;3.08;;;2.88;;
11823;SDS011;5969;50.780;7.726;2023-09-08T11:11:33;3.33;;;3.03;;
11823;SDS011;5969;50.780;7.726;2023-09-08T11:14:01;5.03;;;3.20;;
11823;SDS011;5969;50.780;7.726;2023-09-08T11:16:28;4.30;;;3.40;;
11823;SDS011;5969;50.780;7.726;2023-09-08T11:18:58;3.30;;;3.08;;
11823;SDS011;5969;50.780;7.726;2023-09-08T11:21:27;4.68;;;3.28;;
11823;SDS011;5969;50.780;7.726;2023-09-08T11:23:59;3.15;;;2.85;;
11823;SDS011;5969;50.780;7.726;2023-09-08T11:26:29;4.03;;;3.33;;
11823;SDS011;5969;50.780;7.726;2023-09-08T11:28:58;3.55;;;2.97;;
11823;SDS011;5969;50.780;7.726;2023-09-08T11:31:25;4.18;;;3.30;;
11823;SDS011;5969;50.780;7.726;2023-09-08T11:33:54;3.60;;;3.05;;
11823;SDS011;5969;50.780;7.726;2023-09-08T11:36:21;5.20;;;3.45;;
11823;SDS011;5969;50.780;7.726;2023-09-08T11:38:49;3.00;;;2.70;;
11823;SDS011;5969;50.780;7.726;2023-09-08T11:41:16;4.13;;;3.15;;
11823;SDS011;5969;50.780;7.726;2023-09-08T11:43:47;4.25;;;2.83;;
11823;SDS011;5969;50.780;7.726;2023-09-08T11:46:15;3.42;;;3.13;;
11823;SDS011;5969;50.780;7.726;2023-09-08T11:48:43;3.30;;;2.95;;
11823;SDS011;5969;50.780;7.726;2023-09-08T11:51:10;7.65;;;3.00;;
11823;SDS011;5969;50.780;7.726;2023-09-08T11:53:37;4.80;;;3.10;;
11823;SDS011;5969;50.780;7.726;2023-09-08T11:56:06;4.35;;;3.47;;
11823;SDS011;5969;50.780;7.726;2023-09-08T11:58:33;3.65;;;2.97;;
11823;SDS011;5969;50.780;7.726;2023-09-08T12:01:00;3.63;;;3.00;;
11823;SDS011;5969;50.780;7.726;2023-09-08T12:03:28;10.70;;;3.80;;
11823;SDS011;5969;50.780;7.726;2023-09-08T12:05:55;4.13;;;2.63;;
11823;SDS011;5969;50.780;7.726;2023-09-08T12:08:24;3.55;;;3.25;;
11823;SDS011;5969;50.780;7.726;2023-09-08T12:10:53;4.85;;;3.10;;
11823;SDS011;5969;50.780;7.726;2023-09-08T12:13:21;4.70;;;3.22;;
11823;SDS011;5969;50.780;7.726;2023-09-08T12:15:49;3.97;;;3.22;;
11823;SDS011;5969;50.780;7.726;2023-09-08T12:18:16;3.05;;;2.75;;
11823;SDS011;5969;50.780;7.726;2023-09-08T12:20:43;3.20;;;2.90;;
11823;SDS011;5969;50.780;7.726;2023-09-08T12:23:15;3.13;;;2.80;;
11823;SDS011;5969;50.780;7.726;2023-09-08T12:25:46;3.05;;;2.50;;
11823;SDS011;5969;50.780;7.726;2023-09-08T12:28:13;3.20;;;2.90;;
11823;SDS011;5969;50.780;7.726;2023-09-08T12:30:44;7.57;;;2.78;;
11823;SDS011;5969;50.780;7.726;2023-09-08T12:33:11;4.47;;;3.10;;
11823;SDS011;5969;50.780;7.726;2023-09-08T12:35:42;3.88;;;2.95;;
11823;SDS011;5969;50.780;7.726;2023-09-08T12:38:09;4.07;;;2.83;;
11823;SDS011;5969;50.780;7.726;2023-09-08T12:40:37;2.92;;;2.72;;
11823;SDS011;5969;50.780;7.726;2023-09-08T12:43:04;3.72;;;3.17;;
11823;SDS011;5969;50.780;7.726;2023-09-08T12:45:32;3.65;;;3.10;;
11823;SDS011;5969;50.780;7.726;2023-09-08T12:48:00;3.45;;;3.05;;
11823;SDS011;5969;50.780;7.726;2023-09-08T12:50:28;5.10;;;2.95;;
11823;SDS011;5969;50.780;7.726;2023-09-08T12:52:55;3.28;;;2.97;;
11823;SDS011;5969;50.780;7.726;2023-09-08T12:55:23;4.03;;;3.20;;
11823;SDS011;5969;50.780;7.726;2023-09-08T12:57:50;8.00;;;3.10;;
11823;SDS011;5969;50.780;7.726;2023-09-08T13:00:19;3.28;;;2.97;;
11823;SDS011;5969;50.780;7.726;2023-09-08T13:02:47;3.50;;;3.20;;
11823;SDS011;5969;50.780;7.726;2023-09-08T13:05:15;3.65;;;3.00;;
11823;SDS011;5969;50.780;7.726;2023-09-08T13:07:42;4.38;;;3.05;;
11823;SDS011;5969;50.780;7.726;2023-09-08T13:10:09;5.55;;;3.35;;
11823;SDS011;5969;50.780;7.726;2023-09-08T13:12:36;5.93;;;3.20;;
11823;SDS011;5969;50.780;7.726;2023-09-08T13:15:03;6.30;;;3.47;;
11823;SDS011;5969;50.780;7.726;2023-09-08T13:17:30;3.38;;;3.08;;
11823;SDS011;5969;50.780;7.726;2023-09-08T13:19:57;5.00;;;3.40;;
11823;SDS011;5969;50.780;7.726;2023-09-08T13:22:25;4.47;;;3.10;;
11823;SDS011;5969;50.780;7.726;2023-09-08T13:24:52;3.40;;;3.10;;
11823;SDS011;5969;50.780;7.726;2023-09-08T13:27:20;5.95;;;3.35;;
11823;SDS011;5969;50.780;7.726;2023-09-08T13:29:47;4.78;;;3.42;;
11823;SDS011;5969;50.780;7.726;2023-09-08T13:32:13;3.47;;;2.88;;
11823;SDS011;5969;50.780;7.726;2023-09-08T13:34:40;3.55;;;2.83;;
11823;SDS011;5969;50.780;7.726;2023-09-08T13:37:08;5.18;;;3.03;;
11823;SDS011;5969;50.780;7.726;2023-09-08T13:39:36;3.17;;;2.88;;
11823;SDS011;5969;50.780;7.726;2023-09-08T13:42:03;3.78;;;2.75;;
11823;SDS011;5969;50.780;7.726;2023-09-08T13:44:30;4.47;;;3.20;;
11823;SDS011;5969;50.780;7.726;2023-09-08T13:46:57;7.05;;;3.00;;
11823;SDS011;5969;50.780;7.726;2023-09-08T13:49:25;3.05;;;2.67;;
11823;SDS011;5969;50.780;7.726;2023-09-08T13:51:52;3.28;;;2.80;;
11823;SDS011;5969;50.780;7.726;2023-09-08T13:54:19;3.30;;;2.90;;
11823;SDS011;5969;50.780;7.726;2023-09-08T13:56:56;4.68;;;2.88;;
11823;SDS011;5969;50.780;7.726;2023-09-08T13:59:25;3.30;;;2.95;;
11823;SDS011;5969;50.780;7.726;2023-09-08T14:01:53;3.38;;;2.72;;
11823;SDS011;5969;50.780;7.726;2023-09-08T14:04:20;3.25;;;2.90;;
11823;SDS011;5969;50.780;7.726;2023-09-08T14:06:47;3.97;;;3.20;;
11823;SDS011;5969;50.780;7.726;2023-09-08T14:09:14;7.32;;;2.90;;
11823;SDS011;5969;50.780;7.726;2023-09-08T14:11:41;5.90;;;2.60;;
11823;SDS011;5969;50.780;7.726;2023-09-08T14:14:09;4.03;;;3.10;;
11823;SDS011;5969;50.780;7.726;2023-09-08T14:16:36;4.18;;;2.90;;
11823;SDS011;5969;50.780;7.726;2023-09-08T14:19:03;4.22;;;2.97;;
11823;SDS011;5969;50.780;7.726;2023-09-08T14:21:30;3.38;;;3.00;;
11823;SDS011;5969;50.780;7.726;2023-09-08T14:23:57;4.93;;;3.05;;
11823;SDS011;5969;50.780;7.726;2023-09-08T14:26:24;3.45;;;3.15;;
11823;SDS011;5969;50.780;7.726;2023-09-08T14:28:51;3.35;;;3.00;;
11823;SDS011;5969;50.780;7.726;2023-09-08T14:31:19;3.33;;;3.03;;
11823;SDS011;5969;50.780;7.726;2023-09-08T14:33:46;3.70;;;3.40;;
11823;SDS011;5969;50.780;7.726;2023-09-08T14:36:16;3.92;;;3.53;;
11823;SDS011;5969;50.780;7.726;2023-09-08T14:38:43;3.40;;;3.10;;
11823;SDS011;5969;50.780;7.726;2023-09-08T14:41:10;3.65;;;3.35;;
11823;SDS011;5969;50.780;7.726;2023-09-08T14:43:36;4.82;;;3.30;;
11823;SDS011;5969;50.780;7.726;2023-09-08T14:46:03;3.60;;;3.30;;
11823;SDS011;5969;50.780;7.726;2023-09-08T14:48:32;3.25;;;2.95;;
11823;SDS011;5969;50.780;7.726;2023-09-08T14:50:59;3.05;;;2.85;;
11823;SDS011;5969;50.780;7.726;2023-09-08T14:53:26;3.78;;;3.40;;
11823;SDS011;5969;50.780;7.726;2023-09-08T14:55:54;5.78;;;3.50;;
11823;SDS011;5969;50.780;7.726;2023-09-08T14:58:22;3.60;;;3.30;;
11823;SDS011;5969;50.780;7.726;2023-09-08T15:00:49;5.78;;;3.38;;
11823;SDS011;5969;50.780;7.726;2023-09-08T15:03:16;5.05;;;3.45;;
11823;SDS011;5969;50.780;7.726;2023-09-08T15:05:44;4.10;;;3.25;;